createdAt,value
2022-10-28T00:00:41.607Z,63.57
2022-10-28T00:03:48.949Z,63.51
2022-10-28T00:06:54.428Z,63.38
2022-10-28T00:09:59.899Z,63.54
2022-10-28T00:13:05.451Z,63.56
2022-10-28T00:16:13.749Z,63.63
2022-10-28T00:19:19.569Z,64.33
2022-10-28T00:22:25.347Z,64.17
2022-10-28T00:25:30.724Z,63.87
2022-10-28T00:28:36.167Z,63.71
2022-10-28T00:31:42.568Z,63.55
2022-10-28T00:34:48.415Z,63.81
2022-10-28T00:37:56.589Z,63.80
2022-10-28T00:41:02.038Z,63.53
2022-10-28T00:44:38.220Z,63.26
2022-10-28T00:47:52.573Z,63.18
2022-10-28T00:50:59.198Z,63.88
2022-10-28T00:54:06.744Z,63.51
2022-10-28T00:57:16.322Z,63.35
2022-10-28T01:00:22.039Z,63.95
2022-10-28T01:03:27.589Z,64.05
2022-10-28T01:06:33.235Z,63.80
2022-10-28T01:09:39.240Z,63.56
2022-10-28T01:12:58.295Z,63.43
2022-10-28T01:16:11.134Z,63.39
2022-10-28T01:19:56.687Z,63.85
2022-10-28T01:23:05.416Z,65.31
2022-10-28T01:26:35.897Z,65.74
2022-10-28T01:30:00.150Z,64.64
2022-10-28T01:33:10.932Z,64.15
2022-10-28T01:36:21.407Z,63.99
2022-10-28T01:39:35.298Z,63.96
2022-10-28T01:42:45.517Z,64.14
2022-10-28T01:45:57.360Z,64.07
2022-10-28T01:49:08.950Z,64.05
2022-10-28T01:52:19.516Z,64.00
2022-10-28T01:55:27.588Z,63.96
2022-10-28T01:58:34.726Z,63.96
2022-10-28T02:01:40.477Z,64.39
2022-10-28T02:04:46.172Z,65.45
2022-10-28T02:07:56.894Z,65.98
2022-10-28T02:11:16.824Z,66.47
2022-10-28T02:14:34.565Z,67.13
2022-10-28T02:17:52.155Z,67.20
2022-10-28T02:21:02.034Z,66.67
2022-10-28T02:24:16.478Z,67.05
2022-10-28T02:27:31.529Z,66.79
2022-10-28T02:30:45.367Z,67.12
2022-10-28T02:33:56.905Z,67.34
2022-10-28T02:37:07.831Z,67.54
2022-10-28T02:40:19.246Z,67.58
2022-10-28T02:43:26.133Z,67.74
2022-10-28T02:46:34.673Z,67.01
2022-10-28T02:49:45.022Z,65.95
2022-10-28T02:52:55.989Z,65.58
2022-10-28T02:56:05.465Z,65.24
2022-10-28T02:59:13.321Z,64.84
2022-10-28T03:02:18.788Z,64.95
2022-10-28T03:05:24.400Z,65.19
2022-10-28T03:08:29.843Z,65.39
2022-10-28T03:11:35.398Z,65.35
2022-10-28T03:14:40.844Z,65.79
2022-10-28T03:17:46.382Z,66.54
2022-10-28T03:20:55.338Z,66.92
2022-10-28T03:24:03.577Z,67.03
2022-10-28T03:27:09.084Z,67.84
2022-10-28T03:30:15.561Z,68.87
2022-10-28T03:33:20.984Z,69.22
2022-10-28T03:36:26.645Z,69.85
2022-10-28T03:39:32.094Z,69.85
2022-10-28T03:42:40.335Z,69.89
2022-10-28T03:45:46.840Z,69.74
2022-10-28T03:48:52.300Z,69.45
2022-10-28T03:51:57.778Z,69.67
2022-10-28T03:55:03.250Z,69.64
2022-10-28T03:58:08.775Z,69.48
2022-10-28T04:01:14.428Z,69.47
2022-10-28T04:04:20.085Z,69.13
2022-10-28T04:07:25.833Z,69.17
2022-10-28T04:10:31.281Z,69.13
2022-10-28T04:13:37.094Z,69.05
2022-10-28T04:16:42.533Z,69.06
2022-10-28T04:19:47.959Z,69.26
2022-10-28T04:22:57.148Z,69.67
2022-10-28T04:26:02.921Z,68.85
2022-10-28T04:29:08.774Z,67.58
2022-10-28T04:32:14.242Z,66.72
2022-10-28T04:35:19.771Z,66.56
2022-10-28T04:38:25.837Z,66.90
2022-10-28T04:41:31.381Z,66.51
2022-10-28T04:44:37.113Z,66.04
2022-10-28T04:47:42.531Z,65.65
2022-10-28T04:50:48.029Z,65.59
2022-10-28T04:53:53.885Z,65.39
2022-10-28T04:56:59.321Z,65.39
2022-10-28T05:00:05.722Z,66.15
2022-10-28T05:03:11.251Z,66.71
2022-10-28T05:06:16.800Z,66.94
2022-10-28T05:09:22.247Z,67.83
2022-10-28T05:12:27.694Z,68.42
2022-10-28T05:15:33.117Z,68.22
2022-10-28T05:18:38.638Z,68.20
2022-10-28T05:21:44.137Z,69.03
2022-10-28T05:24:49.548Z,69.49
2022-10-28T05:27:59.225Z,69.70
2022-10-28T05:31:04.783Z,69.59
2022-10-28T05:34:10.636Z,69.10
2022-10-28T05:37:16.071Z,69.55
2022-10-28T05:40:21.836Z,69.67
2022-10-28T05:43:27.489Z,69.34
2022-10-28T05:46:32.901Z,69.04
2022-10-28T05:49:38.384Z,69.16
2022-10-28T05:52:48.673Z,68.97
2022-10-28T05:55:54.192Z,69.07
2022-10-28T05:58:59.844Z,69.59
2022-10-28T06:02:05.569Z,70.06
2022-10-28T06:05:11.895Z,70.06
2022-10-28T06:08:15.876Z,70.30
2022-10-28T06:11:19.891Z,70.75
2022-10-28T06:14:25.956Z,70.67
2022-10-28T06:17:31.667Z,70.56
2022-10-28T06:20:37.263Z,70.75
2022-10-28T06:23:42.816Z,71.19
2022-10-28T06:26:48.675Z,71.49
2022-10-28T06:29:54.085Z,71.89
2022-10-28T06:32:59.576Z,71.81
2022-10-28T06:36:06.017Z,71.41
2022-10-28T06:39:11.601Z,71.40
2022-10-28T06:42:17.255Z,71.38
2022-10-28T06:45:22.704Z,71.54
2022-10-28T06:48:29.770Z,71.64
2022-10-28T06:51:35.256Z,72.22
2022-10-28T06:54:40.771Z,72.56
2022-10-28T06:57:46.220Z,73.04
2022-10-28T07:00:51.778Z,73.39
2022-10-28T07:03:57.221Z,73.54
2022-10-28T07:07:02.740Z,73.49
2022-10-28T07:10:09.205Z,73.63
2022-10-28T07:13:14.619Z,74.01
2022-10-28T07:16:20.146Z,74.02
2022-10-28T07:19:25.691Z,74.17
2022-10-28T07:22:31.151Z,74.37
2022-10-28T07:25:36.661Z,74.50
2022-10-28T07:28:42.960Z,74.56
2022-10-28T07:31:46.886Z,74.73
2022-10-28T07:34:52.430Z,75.06
2022-10-28T07:37:58.310Z,74.96
2022-10-28T07:41:08.096Z,74.71
2022-10-28T07:44:14.054Z,74.61
2022-10-28T07:47:21.607Z,75.07
2022-10-28T07:50:27.084Z,75.24
2022-10-28T07:53:32.574Z,75.69
2022-10-28T07:56:38.132Z,76.68
2022-10-28T07:59:43.575Z,77.26
2022-10-28T08:02:49.124Z,77.93
2022-10-28T08:06:02.640Z,77.94
2022-10-28T08:09:08.195Z,77.95
2022-10-28T08:12:16.249Z,78.07
2022-10-28T08:15:23.888Z,78.66
2022-10-28T08:18:29.434Z,78.84
2022-10-28T08:21:34.983Z,78.71
2022-10-28T08:24:40.671Z,78.83
2022-10-28T08:27:46.590Z,79.04
2022-10-28T08:31:04.151Z,79.80
2022-10-28T08:34:13.811Z,80.52
2022-10-28T08:37:19.714Z,80.57
2022-10-28T08:40:33.568Z,81.24
2022-10-28T08:43:57.611Z,81.82
2022-10-28T08:47:14.892Z,81.37
2022-10-28T08:50:23.876Z,81.39
2022-10-28T08:53:33.259Z,80.70
2022-10-28T08:56:46.236Z,80.09
2022-10-28T08:59:55.007Z,79.63
2022-10-28T09:03:15.151Z,78.85
2022-10-28T09:06:20.594Z,78.18
2022-10-28T09:09:26.282Z,77.47
2022-10-28T09:12:42.178Z,77.19
2022-10-28T09:15:53.202Z,75.85
2022-10-28T09:19:02.095Z,75.14
2022-10-28T09:22:22.081Z,74.81
2022-10-28T09:25:33.150Z,74.35
2022-10-28T09:28:52.255Z,74.04
2022-10-28T09:32:02.989Z,73.14
2022-10-28T09:35:11.733Z,72.52
2022-10-28T09:38:26.531Z,71.38
2022-10-28T09:41:35.714Z,71.32
2022-10-28T09:44:48.533Z,70.77
2022-10-28T09:47:59.614Z,70.39
2022-10-28T09:51:05.899Z,69.78
2022-10-28T09:54:13.834Z,69.31
2022-10-28T09:57:19.864Z,68.86
2022-10-28T10:00:25.648Z,68.63
2022-10-28T10:03:31.150Z,68.36
2022-10-28T10:06:40.384Z,67.47
2022-10-28T10:09:46.623Z,67.57
2022-10-28T10:12:53.914Z,66.96
2022-10-28T10:16:03.134Z,66.67
2022-10-28T10:19:11.156Z,66.77
2022-10-28T10:22:32.431Z,66.02
2022-10-28T10:25:38.050Z,65.49
2022-10-28T10:28:47.415Z,65.65
2022-10-28T10:32:08.696Z,65.27
2022-10-28T10:35:24.501Z,64.24
2022-10-28T10:38:29.266Z,63.18
2022-10-28T10:41:39.733Z,63.41
2022-10-28T10:45:00.650Z,62.56
2022-10-28T10:48:14.791Z,61.09
2022-10-28T10:51:24.756Z,60.71
2022-10-28T10:54:33.016Z,60.26
2022-10-28T10:57:41.380Z,59.23
2022-10-28T11:00:51.513Z,60.54
2022-10-28T11:03:59.791Z,60.96
2022-10-28T11:07:05.664Z,60.00
2022-10-28T11:10:24.788Z,58.64
2022-10-28T11:13:31.130Z,56.88
2022-10-28T11:16:47.317Z,57.63
2022-10-28T11:19:55.345Z,59.11
2022-10-28T11:23:13.295Z,60.29
2022-10-28T11:26:23.480Z,60.07
2022-10-28T11:29:29.657Z,57.60
2022-10-28T11:33:01.950Z,57.30
2022-10-28T11:36:26.473Z,57.44
2022-10-28T11:39:36.836Z,57.83
2022-10-28T11:42:51.224Z,59.79
2022-10-28T11:46:07.254Z,57.19
2022-10-28T11:49:45.879Z,57.23
2022-10-28T11:53:27.541Z,57.56
2022-10-28T11:56:40.647Z,57.78
2022-10-28T12:00:15.979Z,58.10
2022-10-28T12:03:36.419Z,58.50
2022-10-28T12:06:57.255Z,58.22
2022-10-28T12:10:26.766Z,58.67
2022-10-28T12:13:41.364Z,60.14
2022-10-28T12:16:54.389Z,59.17
2022-10-28T12:20:04.045Z,56.73
2022-10-28T12:23:14.872Z,56.69
2022-10-28T12:26:23.698Z,57.88
2022-10-28T12:29:33.751Z,57.37
2022-10-28T12:32:41.275Z,58.07
2022-10-28T12:35:52.699Z,58.21
2022-10-28T12:39:02.589Z,58.02
2022-10-28T12:42:17.585Z,57.41
2022-10-28T12:45:25.265Z,58.02
2022-10-28T12:48:39.113Z,57.74
2022-10-28T12:51:45.341Z,58.46
2022-10-28T12:54:59.315Z,58.07
2022-10-28T12:58:15.378Z,57.25
2022-10-28T13:01:23.620Z,57.66
2022-10-28T13:04:29.805Z,58.84
2022-10-28T13:08:06.279Z,56.78
2022-10-28T13:11:54.204Z,56.92
2022-10-28T13:15:37.161Z,57.21
2022-10-28T13:18:58.294Z,56.95
2022-10-28T13:22:28.968Z,57.44
2022-10-28T13:26:06.436Z,57.48
2022-10-28T13:29:25.043Z,57.44
2022-10-28T13:32:38.329Z,57.54
2022-10-28T13:35:47.325Z,58.21
2022-10-28T13:38:56.932Z,58.79
2022-10-28T13:42:45.872Z,58.19
2022-10-28T13:45:54.466Z,57.80
2022-10-28T13:49:24.456Z,58.14
2022-10-28T13:52:29.902Z,58.63
2022-10-28T13:55:46.345Z,58.55
2022-10-28T13:59:01.111Z,59.20
2022-10-28T14:02:34.381Z,59.24
2022-10-28T14:05:59.261Z,59.22
2022-10-28T14:09:06.256Z,59.73
2022-10-28T14:12:23.786Z,59.70
2022-10-28T14:15:33.139Z,60.27
2022-10-28T14:18:43.751Z,60.51
2022-10-28T14:22:01.522Z,60.55
2022-10-28T14:25:46.195Z,60.65
2022-10-28T14:28:58.298Z,60.71
2022-10-28T14:32:42.792Z,62.54
2022-10-28T14:35:53.060Z,62.30
2022-10-28T14:39:25.297Z,60.93
2022-10-28T14:46:06.739Z,58.14
2022-10-28T14:49:22.250Z,57.61
2022-10-28T14:52:30.405Z,57.80
2022-10-28T14:55:37.688Z,58.77
2022-10-28T14:58:45.600Z,58.90
2022-10-28T15:02:03.267Z,59.09
2022-10-28T15:05:18.467Z,59.48
2022-10-28T15:08:25.079Z,59.84
2022-10-28T15:11:31.654Z,60.14
2022-10-28T15:14:40.081Z,60.56
2022-10-28T15:17:45.619Z,61.14
2022-10-28T15:21:07.759Z,63.46
2022-10-28T15:24:16.235Z,64.77
2022-10-28T15:27:22.350Z,64.34
2022-10-28T15:30:28.809Z,63.74
2022-10-28T15:33:38.746Z,63.01
2022-10-28T15:36:51.087Z,61.77
2022-10-28T15:40:20.034Z,60.95
2022-10-28T15:43:28.101Z,60.90
2022-10-28T15:46:34.900Z,60.75
2022-10-28T15:49:41.836Z,60.50
2022-10-28T15:52:48.215Z,60.51
2022-10-28T15:56:18.030Z,59.71
2022-10-28T15:59:25.726Z,59.87
2022-10-28T16:02:46.056Z,58.86
2022-10-28T16:05:51.996Z,58.67
2022-10-28T16:09:15.595Z,60.11
2022-10-28T16:12:26.623Z,61.54
2022-10-28T16:15:32.298Z,63.65
2022-10-28T16:18:44.387Z,63.76
2022-10-28T16:21:49.934Z,63.27
2022-10-28T16:24:56.304Z,62.94
2022-10-28T16:28:02.058Z,62.86
2022-10-28T16:31:13.463Z,62.65
2022-10-28T16:34:18.996Z,62.82
2022-10-28T16:37:27.051Z,62.46
2022-10-28T16:43:59.778Z,62.08
2022-10-28T16:47:13.531Z,61.75
2022-10-28T16:50:19.101Z,61.69
2022-10-28T16:53:25.108Z,61.92
2022-10-28T16:56:29.175Z,62.44
2022-10-28T16:59:34.624Z,62.68
2022-10-28T17:02:40.303Z,63.10
2022-10-28T17:05:46.113Z,63.19
2022-10-28T17:09:06.943Z,63.54
2022-10-28T17:12:15.086Z,62.99
2022-10-28T17:15:20.905Z,62.96
2022-10-28T17:18:26.352Z,62.79
2022-10-28T17:21:32.132Z,62.50
2022-10-28T17:24:37.656Z,63.55
2022-10-28T17:27:48.386Z,63.44
2022-10-28T17:30:53.916Z,63.00
2022-10-28T17:33:59.630Z,62.72
2022-10-28T17:37:05.233Z,63.50
2022-10-28T17:40:11.885Z,63.65
2022-10-28T17:43:17.404Z,63.82
2022-10-28T17:46:23.262Z,63.56
2022-10-28T17:49:29.118Z,63.56
2022-10-28T17:52:38.282Z,63.35
2022-10-28T17:55:44.193Z,63.19
2022-10-28T17:58:49.965Z,63.48
2022-10-28T18:01:55.586Z,63.58
2022-10-28T18:05:01.269Z,64.48
2022-10-28T18:08:07.335Z,65.14
2022-10-28T18:11:12.270Z,65.59
2022-10-28T18:14:18.020Z,66.09
2022-10-28T18:17:23.550Z,66.37
2022-10-28T18:20:29.020Z,66.59
2022-10-28T18:23:34.671Z,66.69
2022-10-28T18:26:40.955Z,66.36
2022-10-28T18:29:46.487Z,65.42
2022-10-28T18:32:52.186Z,64.73
2022-10-28T18:36:01.581Z,64.41
2022-10-28T18:39:08.528Z,64.52
2022-10-28T18:42:17.777Z,64.79
2022-10-28T18:45:26.749Z,65.74
2022-10-28T18:48:32.319Z,65.65
2022-10-28T18:51:38.031Z,65.36
2022-10-28T18:54:43.749Z,65.23
2022-10-28T18:57:52.462Z,65.36
2022-10-28T19:01:09.819Z,64.83
2022-10-28T19:04:16.351Z,64.76
2022-10-28T19:07:21.855Z,64.67
2022-10-28T19:10:27.302Z,64.34
2022-10-28T19:13:35.459Z,65.21
2022-10-28T19:16:41.063Z,66.21
2022-10-28T19:19:47.476Z,66.75
2022-10-28T19:22:53.333Z,67.08
2022-10-28T19:25:58.021Z,67.49
2022-10-28T19:29:04.614Z,67.73
2022-10-28T19:32:10.142Z,67.36
2022-10-28T19:35:15.854Z,65.65
2022-10-28T19:38:21.305Z,65.25
2022-10-28T19:41:28.501Z,64.88
2022-10-28T19:44:33.980Z,65.00
2022-10-28T19:47:39.529Z,65.19
2022-10-28T19:50:51.119Z,65.67
2022-10-28T19:53:58.079Z,65.96
2022-10-28T19:57:03.716Z,66.66
2022-10-28T20:00:12.405Z,66.73
2022-10-28T20:03:18.030Z,66.99
2022-10-28T20:06:25.455Z,66.92
2022-10-28T20:09:31.944Z,66.89
2022-10-28T20:12:37.408Z,66.69
2022-10-28T20:15:42.992Z,66.77
2022-10-28T20:18:48.598Z,66.55
2022-10-28T20:21:54.229Z,66.53
2022-10-28T20:25:01.996Z,66.57
2022-10-28T20:28:07.635Z,66.42
2022-10-28T20:31:14.947Z,66.75
2022-10-28T20:34:20.520Z,67.36
2022-10-28T20:37:25.895Z,67.76
2022-10-28T20:40:31.485Z,67.79
2022-10-28T20:43:36.939Z,67.96
2022-10-28T20:46:45.020Z,67.86
2022-10-28T20:49:52.176Z,67.59
2022-10-28T20:52:58.602Z,67.12
2022-10-28T20:56:05.376Z,67.35
2022-10-28T20:59:11.232Z,67.56
2022-10-28T21:02:16.992Z,67.75
2022-10-28T21:05:22.744Z,67.97
2022-10-28T21:08:28.292Z,68.54
2022-10-28T21:11:33.842Z,68.81
2022-10-28T21:14:39.286Z,68.81
2022-10-28T21:17:45.044Z,68.92
2022-10-28T21:20:55.712Z,68.86
2022-10-28T21:24:01.248Z,69.00
2022-10-28T21:27:06.695Z,69.00
2022-10-28T21:30:14.589Z,68.81
2022-10-28T21:33:20.139Z,68.67
2022-10-28T21:36:25.810Z,68.43
2022-10-28T21:39:31.260Z,68.90
2022-10-28T21:42:36.811Z,68.95
2022-10-28T21:45:42.259Z,68.58
2022-10-28T21:48:48.423Z,68.61
2022-10-28T21:51:54.067Z,68.90
2022-10-28T21:55:00.866Z,68.80
2022-10-28T21:58:08.447Z,68.40
2022-10-28T22:01:16.242Z,68.24
2022-10-28T22:04:22.091Z,68.15
2022-10-28T22:07:27.658Z,68.10
2022-10-28T22:10:33.338Z,68.37
2022-10-28T22:13:38.888Z,68.34
2022-10-28T22:16:44.452Z,68.44
2022-10-28T22:19:52.518Z,68.33
2022-10-28T22:22:58.175Z,68.32
2022-10-28T22:26:08.633Z,68.45
2022-10-28T22:29:14.471Z,68.57
2022-10-28T22:32:19.931Z,68.54
2022-10-28T22:35:25.486Z,68.66
2022-10-28T22:38:31.344Z,68.64
2022-10-28T22:41:36.892Z,68.74
2022-10-28T22:44:42.446Z,68.71
2022-10-28T22:47:47.993Z,68.62
2022-10-28T22:50:53.915Z,68.46
2022-10-28T22:53:59.708Z,68.72
2022-10-28T22:57:05.356Z,68.80
2022-10-28T23:00:13.341Z,68.69
2022-10-28T23:03:19.222Z,68.29
2022-10-28T23:06:26.771Z,67.89
2022-10-28T23:09:32.266Z,67.69
2022-10-28T23:12:37.815Z,68.04
2022-10-28T23:15:43.262Z,68.30
2022-10-28T23:18:49.221Z,68.44
2022-10-28T23:21:54.675Z,68.44
2022-10-28T23:25:00.120Z,68.43
2022-10-28T23:28:06.859Z,68.31
2022-10-28T23:31:15.951Z,68.42
2022-10-28T23:34:21.397Z,68.50
2022-10-28T23:37:26.861Z,68.33
2022-10-28T23:40:32.573Z,68.28
2022-10-28T23:43:38.735Z,68.44
2022-10-28T23:46:44.286Z,68.57
2022-10-28T23:49:49.838Z,68.66
2022-10-28T23:52:57.616Z,68.73
2022-10-28T23:56:03.291Z,68.38
2022-10-28T23:59:08.860Z,68.37
